Time;durP1;ratioP1;P1;durP2;ratioP2;P2;SDS_P1;SDS_P2;PMS_P1;PMS_P2;Temp;Humidity;BMP_temperature;BMP_pressure;BME280_temperature;BME280_humidity;BME280_pressure;Samples;Min_cycle;Max_cycle;Signal;HPM_P1;HPM_P2
2022/02/12 00:02:04;;;;;;;28.55;17.75;;;;;;;3.94;67.46;99345.55;1805518;77;21020;-39
2022/02/12 00:04:32;;;;;;;26.90;17.37;;;;;;;3.74;68.10;99335.44;1808625;77;21530;-39
2022/02/12 00:06:58;;;;;;;26.27;16.57;;;;;;;3.62;68.71;99340.65;1795160;77;21597;-39
2022/02/12 00:09:26;;;;;;;27.17;17.17;;;;;;;3.61;69.05;99335.05;1814721;77;21134;-39
2022/02/12 00:11:54;;;;;;;27.65;18.32;;;;;;;3.64;69.11;99335.75;1821014;77;20956;-38
2022/02/12 00:14:20;;;;;;;25.72;16.32;;;;;;;3.65;69.08;99330.63;1799589;78;21295;-38
2022/02/12 00:16:47;;;;;;;28.23;18.82;;;;;;;3.69;68.94;99322.73;1793319;78;20961;-39
2022/02/12 00:19:13;;;;;;;29.10;19.65;;;;;;;3.63;68.93;99323.44;1807573;78;21000;-39
2022/02/12 00:21:40;;;;;;;27.52;20.35;;;;;;;3.43;69.49;99314.14;1793824;78;21140;-39
2022/02/12 00:24:06;;;;;;;29.00;21.50;;;;;;;3.24;70.04;99303.46;1821722;78;20953;-39
2022/02/12 00:26:33;;;;;;;29.63;20.90;;;;;;;3.04;70.75;99308.84;1825751;78;21005;-39
2022/02/12 00:29:00;;;;;;;36.00;23.77;;;;;;;2.87;71.58;99304.20;1823271;78;20973;-39
2022/02/12 00:31:26;;;;;;;34.90;23.98;;;;;;;2.81;72.03;99300.66;1823625;78;21311;-38
2022/02/12 00:33:53;;;;;;;33.67;25.00;;;;;;;2.68;72.44;99303.66;1801786;78;21097;-38
2022/02/12 00:36:19;;;;;;;32.63;23.05;;;;;;;2.59;72.81;99320.23;1790389;78;20972;-38
2022/02/12 00:38:46;;;;;;;32.45;22.50;;;;;;;2.63;73.18;99323.87;1810345;78;21424;-38
2022/02/12 00:41:12;;;;;;;34.03;22.42;;;;;;;2.79;73.00;99313.00;1824402;78;21632;-38
2022/02/12 00:43:39;;;;;;;35.08;23.83;;;;;;;2.78;72.93;99307.41;1824469;78;21001;-39
2022/02/12 00:46:06;;;;;;;33.98;23.38;;;;;;;2.70;73.03;99307.37;1811927;78;21073;-39
2022/02/12 00:48:33;;;;;;;33.02;22.48;;;;;;;2.59;73.35;99306.84;1812476;78;20901;-39
2022/02/12 00:51:00;;;;;;;30.43;20.82;;;;;;;2.56;73.58;99316.84;1795526;78;20991;-38
2022/02/12 00:53:27;;;;;;;31.20;21.80;;;;;;;2.66;73.71;99309.88;1807282;78;21060;-38
2022/02/12 00:55:56;;;;;;;28.42;21.23;;;;;;;2.84;73.63;99302.16;1822289;78;21024;-38
2022/02/12 00:58:23;;;;;;;30.35;21.30;;;;;;;2.96;73.64;99311.72;1809180;77;21072;-39
2022/02/12 01:00:49;;;;;;;31.93;21.93;;;;;;;3.07;73.57;99306.87;1812819;77;20945;-38
2022/02/12 01:03:16;;;;;;;33.25;23.90;;;;;;;3.16;73.27;99305.55;1798566;77;20992;-38
2022/02/12 01:05:43;;;;;;;27.17;20.00;;;;;;;3.20;72.95;99299.80;1818517;77;21553;-39
2022/02/12 01:08:11;;;;;;;27.40;20.48;;;;;;;3.21;72.44;99296.82;1805640;77;21036;-39
2022/02/12 01:10:38;;;;;;;28.12;20.95;;;;;;;3.17;72.15;99293.74;1825837;77;21054;-38
2022/02/12 01:13:05;;;;;;;31.12;20.82;;;;;;;3.06;72.44;99297.25;1825917;77;21004;-39
2022/02/12 01:15:34;;;;;;;36.33;24.75;;;;;;;3.01;72.73;99294.17;1819946;77;21506;-39
2022/02/12 01:18:02;;;;;;;70.45;35.48;;;;;;;3.02;72.94;99293.08;1825792;77;21494;-39
2022/02/12 01:20:29;;;;;;;56.83;30.95;;;;;;;3.10;73.01;99285.39;1824956;77;21510;-39
2022/02/12 01:22:56;;;;;;;55.98;30.40;;;;;;;3.18;72.68;99285.95;1825704;77;21862;-39
2022/02/12 01:25:23;;;;;;;41.73;25.77;;;;;;;3.26;72.28;99282.48;1821792;77;20988;-38
2022/02/12 01:27:49;;;;;;;26.85;20.08;;;;;;;3.26;72.10;99279.81;1823979;77;20999;-38
2022/02/12 01:30:18;;;;;;;29.32;21.05;;;;;;;3.22;72.22;99277.52;1806268;77;20913;-39
2022/02/12 01:32:45;;;;;;;29.50;21.48;;;;;;;3.23;72.38;99279.11;1794279;77;21091;-39
2022/02/12 01:35:12;;;;;;;25.20;19.55;;;;;;;3.30;72.42;99280.76;1824902;77;21166;-39
2022/02/12 01:37:40;;;;;;;24.77;18.95;;;;;;;3.35;71.93;99280.61;1824438;77;20917;-39
2022/02/12 01:40:09;;;;;;;23.02;18.30;;;;;;;3.33;71.70;99278.27;1795264;77;21416;-39
2022/02/12 01:42:36;;;;;;;28.23;20.17;;;;;;;3.32;71.75;99278.56;1803786;77;21452;-45
2022/02/12 01:45:04;;;;;;;26.27;19.80;;;;;;;3.26;72.05;99274.45;1825841;77;21078;-38
2022/02/12 01:47:31;;;;;;;29.32;22.07;;;;;;;3.20;72.17;99273.02;1826127;78;21797;-38
2022/02/12 01:49:58;;;;;;;26.12;19.87;;;;;;;3.17;72.24;99276.33;1823630;77;20854;-39
2022/02/12 01:52:24;;;;;;;24.67;18.95;;;;;;;3.10;72.26;99276.02;1800325;77;21021;-38
2022/02/12 01:54:51;;;;;;;21.82;16.62;;;;;;;3.10;72.28;99282.13;1825658;77;20945;-39
2022/02/12 01:57:17;;;;;;;20.25;16.05;;;;;;;3.10;72.32;99288.83;1825641;78;20977;-39
2022/02/12 01:59:44;;;;;;;21.20;16.42;;;;;;;3.03;72.32;99295.20;1825323;77;21582;-38
2022/02/12 02:02:10;;;;;;;19.27;16.20;;;;;;;2.94;72.37;99291.17;1824029;76;20952;-39
2022/02/12 02:04:40;;;;;;;18.30;14.90;;;;;;;2.88;72.59;99299.64;1798897;78;21007;-38
2022/02/12 02:07:06;;;;;;;17.57;14.37;;;;;;;2.86;72.63;99303.96;1765389;78;20983;-39
2022/02/12 02:09:33;;;;;;;15.00;12.70;;;;;;;2.93;72.57;99303.52;1735146;79;21035;-38
2022/02/12 02:12:00;;;;;;;12.40;11.03;;;;;;;2.92;72.36;99308.63;1766287;80;21552;-39
2022/02/12 02:14:36;;;;;;;13.58;11.75;;;;;;;2.81;72.58;99299.32;1747425;80;20968;-38
2022/02/12 02:17:05;;;;;;;12.78;11.22;;;;;;;2.72;72.81;99305.95;1780400;80;21601;-39
2022/02/12 02:19:32;;;;;;;12.13;10.47;;;;;;;2.62;73.09;99314.25;1761426;80;21341;-39
2022/02/12 02:22:01;;;;;;;11.10;9.43;;;;;;;2.60;73.26;99323.16;1784785;78;21068;-39
2022/02/12 02:24:28;;;;;;;10.93;9.60;;;;;;;2.59;73.25;99327.71;1762469;80;21104;-38
2022/02/12 02:27:18;;;;;;;10.68;9.05;;;;;;;2.58;73.40;99338.17;1764094;80;21020;-39
2022/02/12 02:29:45;;;;;;;10.58;9.48;;;;;;;2.55;73.62;99344.69;1769342;80;21072;-39
2022/02/12 02:32:12;;;;;;;9.58;8.05;;;;;;;2.52;73.77;99362.67;1766120;80;20956;-38
2022/02/12 02:34:50;;;;;;;8.40;7.08;;;;;;;2.48;73.83;99364.39;1761750;80;21558;-39
2022/02/12 02:37:17;;;;;;;7.05;5.40;;;;;;;2.48;73.76;99371.08;1764836;80;21130;-38
2022/02/12 02:39:44;;;;;;;4.60;4.10;;;;;;;2.56;73.76;99378.39;1762331;80;21103;-39
2022/02/12 02:42:12;;;;;;;4.30;3.90;;;;;;;2.52;73.70;99385.42;1767110;78;21457;-38
2022/02/12 02:44:39;;;;;;;3.80;3.50;;;;;;;2.48;73.93;99387.13;1771403;78;21024;-39
2022/02/12 02:49:51;;;;;;;2.87;2.42;;;;;;;2.46;73.73;99397.38;1755649;80;21187;-39
2022/02/12 02:57:51;;;;;;;2.00;1.80;;;;;;;2.32;74.03;99431.41;1767275;78;21028;-39
2022/02/12 03:00:18;;;;;;;1.60;1.50;;;;;;;2.26;74.20;99448.67;1779302;80;21471;-38
2022/02/12 03:02:46;;;;;;;1.80;1.30;;;;;;;2.25;74.19;99451.89;1770137;78;21147;-39
2022/02/12 03:05:13;;;;;;;1.72;1.20;;;;;;;2.27;74.18;99460.95;1770778;80;20998;-38
2022/02/12 03:07:40;;;;;;;1.10;0.80;;;;;;;2.26;74.31;99473.53;1772623;80;21462;-39
2022/02/12 03:10:08;;;;;;;1.32;1.17;;;;;;;2.22;74.36;99481.13;1788881;80;20987;-39
2022/02/12 03:12:35;;;;;;;1.25;0.95;;;;;;;2.16;74.56;99485.25;1808333;78;21035;-38
2022/02/12 03:15:03;;;;;;;0.90;0.90;;;;;;;2.15;74.56;99498.91;1744671;82;21838;-38
2022/02/12 03:17:31;;;;;;;0.70;0.70;;;;;;;2.16;74.75;99491.94;1745717;80;20972;-38
2022/02/12 03:19:58;;;;;;;0.80;0.80;;;;;;;2.18;74.81;99499.09;1773451;80;20915;-39
2022/02/12 03:22:24;;;;;;;0.95;0.70;;;;;;;2.13;74.92;99497.86;1766852;80;20947;-38
2022/02/12 03:24:51;;;;;;;0.82;0.78;;;;;;;2.10;75.02;99508.38;1769429;80;21074;-39
2022/02/12 03:27:17;;;;;;;0.68;0.68;;;;;;;2.10;75.10;99519.87;1763647;81;21092;-39
2022/02/12 03:29:45;;;;;;;0.70;0.70;;;;;;;2.15;75.07;99531.80;1809307;78;21016;-39
2022/02/12 03:32:13;;;;;;;0.88;0.60;;;;;;;2.19;75.11;99544.81;1755845;80;21042;-38
2022/02/12 03:34:39;;;;;;;0.53;0.47;;;;;;;2.16;75.09;99557.45;1765137;78;20976;-39
2022/02/12 03:37:06;;;;;;;0.75;0.60;;;;;;;2.12;75.06;99565.05;1779767;80;21486;-38
2022/02/12 03:39:32;;;;;;;0.60;0.60;;;;;;;2.13;75.19;99578.09;1773001;78;21103;-38
2022/02/12 03:41:59;;;;;;;1.05;0.80;;;;;;;2.24;75.14;99577.35;1773424;80;20916;-38
2022/02/12 03:44:26;;;;;;;1.52;1.00;;;;;;;2.33;74.86;99584.92;1771930;80;21031;-38
2022/02/12 03:46:53;;;;;;;1.02;0.70;;;;;;;2.33;74.72;99592.14;1794040;80;21019;-38
2022/02/12 03:49:19;;;;;;;0.95;0.70;;;;;;;2.32;74.70;99605.30;1795326;80;21003;-38
2022/02/12 03:51:45;;;;;;;0.70;0.60;;;;;;;2.31;74.67;99611.19;1774207;79;21526;-38
2022/02/12 03:54:12;;;;;;;0.50;0.50;;;;;;;2.29;74.64;99616.58;1765223;80;20892;-38
2022/02/12 03:56:39;;;;;;;0.80;0.50;;;;;;;2.35;74.49;99627.43;1763810;81;21071;-39
2022/02/12 03:59:05;;;;;;;0.40;0.40;;;;;;;2.36;74.38;99634.38;1765018;80;21481;-39
2022/02/12 04:01:32;;;;;;;0.60;0.60;;;;;;;2.31;74.49;99637.15;1763830;78;21016;-38
2022/02/12 04:03:59;;;;;;;0.70;0.70;;;;;;;2.27;74.56;99640.97;1785911;80;21237;-38
2022/02/12 04:06:25;;;;;;;0.68;0.60;;;;;;;2.27;74.80;99649.54;1770416;80;21027;-38
2022/02/12 04:08:52;;;;;;;2.75;0.90;;;;;;;2.32;74.81;99658.80;1776129;78;21095;-39
2022/02/12 04:11:20;;;;;;;0.75;0.75;;;;;;;2.44;74.66;99669.78;1766309;80;21008;-39
2022/02/12 04:13:47;;;;;;;0.70;0.65;;;;;;;2.53;74.52;99672.01;1775100;80;21037;-39
2022/02/12 04:16:14;;;;;;;0.98;0.88;;;;;;;2.58;74.37;99679.94;1774429;80;21832;-38
2022/02/12 04:18:40;;;;;;;0.80;0.80;;;;;;;2.61;74.27;99680.70;1750593;79;21777;-38
2022/02/12 04:21:08;;;;;;;0.90;0.90;;;;;;;2.60;73.87;99685.80;1753650;80;21088;-39
2022/02/12 04:23:34;;;;;;;1.30;1.00;;;;;;;2.61;73.79;99698.09;1767688;79;21518;-38
2022/02/12 04:26:03;;;;;;;1.10;1.00;;;;;;;2.64;73.62;99696.15;1773396;80;21511;-39
2022/02/12 04:28:35;;;;;;;0.80;0.80;;;;;;;2.69;73.65;99706.75;1773127;80;21821;-39
2022/02/12 04:30:58;;;;;;;1.10;1.00;;;;;;;2.76;73.70;99715.73;1765148;79;21033;-38
2022/02/12 04:33:24;;;;;;;1.62;1.07;;;;;;;2.80;73.48;99712.16;1770897;79;21037;-38
2022/02/12 04:35:51;;;;;;;1.45;1.12;;;;;;;2.78;73.25;99714.33;1774713;80;21354;-39
2022/02/12 04:38:17;;;;;;;2.20;1.00;;;;;;;2.77;73.13;99715.41;1768020;79;21044;-39
2022/02/12 04:40:45;;;;;;;1.30;0.90;;;;;;;2.79;72.99;99715.12;1762939;79;21139;-39
2022/02/12 04:43:11;;;;;;;1.55;0.95;;;;;;;2.81;72.92;99722.33;1758571;80;21020;-39
2022/02/12 04:45:40;;;;;;;3.20;1.60;;;;;;;2.82;73.02;99723.34;1769904;79;20969;-38
2022/02/12 04:48:07;;;;;;;2.98;1.70;;;;;;;2.83;72.95;99734.31;1758142;79;20977;-38
2022/02/12 04:50:34;;;;;;;2.00;1.55;;;;;;;2.80;72.92;99737.59;1751303;79;21021;-39
2022/02/12 04:53:00;;;;;;;1.70;1.40;;;;;;;2.76;72.90;99743.84;1753175;80;21115;-38
2022/02/12 04:55:26;;;;;;;1.57;1.10;;;;;;;2.76;72.90;99748.63;1744634;80;21624;-38
2022/02/12 04:57:53;;;;;;;1.32;1.22;;;;;;;2.77;72.69;99754.78;1745148;80;21582;-38
2022/02/12 05:00:19;;;;;;;1.35;0.82;;;;;;;2.79;72.88;99758.76;1746245;80;21080;-38
2022/02/12 05:02:46;;;;;;;1.50;0.90;;;;;;;2.82;72.93;99760.83;1767878;79;21048;-39
2022/02/12 05:05:13;;;;;;;1.45;0.98;;;;;;;2.78;72.80;99768.42;1793277;80;21116;-39
2022/02/12 05:07:42;;;;;;;0.80;0.80;;;;;;;2.70;72.85;99771.25;1764294;80;20945;-38
2022/02/12 05:10:10;;;;;;;1.07;0.75;;;;;;;2.70;73.08;99773.94;1779161;80;20965;-38
2022/02/12 05:12:39;;;;;;;0.70;0.70;;;;;;;2.72;72.93;99785.66;1771291;79;21705;-39
2022/02/12 05:15:07;;;;;;;1.42;0.80;;;;;;;2.71;72.96;99786.20;1775245;80;20997;-39
2022/02/12 05:17:34;;;;;;;1.52;0.75;;;;;;;2.65;73.15;99788.75;1780511;80;21126;-38
2022/02/12 05:20:01;;;;;;;0.85;0.80;;;;;;;2.62;73.26;99798.69;1770676;80;21003;-38
2022/02/12 05:22:29;;;;;;;1.55;0.75;;;;;;;2.60;73.36;99799.55;1771595;80;21067;-38
2022/02/12 05:24:55;;;;;;;1.55;0.70;;;;;;;2.63;73.37;99810.99;1760528;81;21593;-38
2022/02/12 05:27:26;;;;;;;1.02;0.70;;;;;;;2.71;73.29;99812.97;1767761;80;21519;-38
2022/02/12 05:29:52;;;;;;;1.40;0.80;;;;;;;2.79;73.09;99819.55;1795341;80;21123;-38
2022/02/12 05:32:19;;;;;;;1.30;0.90;;;;;;;2.76;72.91;99823.59;1792825;80;20932;-38
2022/02/12 05:34:45;;;;;;;1.20;1.10;;;;;;;2.66;73.14;99823.80;1764886;80;21019;-38
2022/02/12 05:37:12;;;;;;;1.40;1.17;;;;;;;2.57;73.28;99822.87;1788542;80;21862;-39
2022/02/12 05:39:39;;;;;;;1.22;0.90;;;;;;;2.53;73.41;99833.92;1763547;79;21527;-39
2022/02/12 05:42:06;;;;;;;1.00;0.82;;;;;;;2.52;73.58;99840.36;1747512;80;21495;-38
2022/02/12 05:44:33;;;;;;;0.75;0.60;;;;;;;2.56;73.58;99844.85;1744177;80;20901;-39
2022/02/12 05:47:00;;;;;;;1.27;1.10;;;;;;;2.57;73.51;99853.11;1736921;79;21020;-38
2022/02/12 05:49:27;;;;;;;0.68;0.68;;;;;;;2.51;73.73;99855.64;1747108;82;20977;-38
2022/02/12 05:51:53;;;;;;;1.30;0.80;;;;;;;2.46;73.86;99860.28;1762623;80;21068;-38
2022/02/12 05:54:20;;;;;;;1.35;0.90;;;;;;;2.37;73.97;99864.72;1775560;80;21115;-38
2022/02/12 05:56:47;;;;;;;1.60;0.90;;;;;;;2.32;74.19;99864.80;1762416;81;21011;-38
2022/02/12 05:59:13;;;;;;;1.02;0.93;;;;;;;2.35;74.43;99873.57;1756885;80;20953;-39
2022/02/12 06:01:41;;;;;;;1.15;0.90;;;;;;;2.38;74.53;99876.98;1762856;80;21016;-38
2022/02/12 06:04:07;;;;;;;1.50;1.12;;;;;;;2.38;74.61;99879.13;1767096;78;21035;-39
2022/02/12 06:06:34;;;;;;;1.20;1.10;;;;;;;2.41;74.56;99881.77;1763640;80;21179;-38
2022/02/12 06:09:01;;;;;;;1.00;0.90;;;;;;;2.41;74.49;99881.23;1777118;78;20979;-38
2022/02/12 06:11:28;;;;;;;0.88;0.70;;;;;;;2.41;74.29;99889.80;1776472;80;20967;-38
2022/02/12 06:13:54;;;;;;;1.32;0.80;;;;;;;2.44;74.30;99887.87;1789316;80;20907;-38
2022/02/12 06:16:22;;;;;;;1.00;0.82;;;;;;;2.44;74.17;99894.02;1774885;80;20995;-38
2022/02/12 06:18:49;;;;;;;0.98;0.75;;;;;;;2.38;74.35;99895.72;1763985;80;21131;-39
2022/02/12 06:21:17;;;;;;;0.78;0.78;;;;;;;2.35;74.46;99900.33;1763856;80;21018;-39
2022/02/12 06:23:44;;;;;;;0.78;0.70;;;;;;;2.33;74.58;99904.63;1763690;80;20939;-39
2022/02/12 06:26:11;;;;;;;1.32;0.70;;;;;;;2.37;74.56;99914.22;1763877;80;21356;-39
2022/02/12 06:28:40;;;;;;;1.95;1.12;;;;;;;2.45;74.39;99925.59;1772267;80;20937;-39
2022/02/12 06:31:06;;;;;;;1.02;0.85;;;;;;;2.50;74.26;99929.52;1784730;80;21132;-39
2022/02/12 06:33:33;;;;;;;1.72;1.45;;;;;;;2.53;74.25;99930.27;1791682;80;20963;-39
2022/02/12 06:35:59;;;;;;;1.10;1.00;;;;;;;2.53;74.05;99936.42;1794427;80;21477;-39
2022/02/12 06:38:26;;;;;;;0.78;0.78;;;;;;;2.55;74.13;99937.47;1791069;80;20924;-39
2022/02/12 06:40:53;;;;;;;1.42;1.05;;;;;;;2.57;73.92;99947.33;1791726;80;21125;-39
2022/02/12 06:43:20;;;;;;;1.40;1.02;;;;;;;2.61;73.77;99957.72;1784353;78;21781;-39
2022/02/12 06:45:47;;;;;;;1.00;0.93;;;;;;;2.63;73.74;99959.02;1773456;80;20991;-39
2022/02/12 06:48:14;;;;;;;3.80;1.05;;;;;;;2.66;73.75;99963.00;1764172;80;20979;-39
2022/02/12 06:50:42;;;;;;;1.37;1.15;;;;;;;2.67;73.73;99964.56;1783344;80;20981;-39
2022/02/12 06:53:08;;;;;;;1.20;1.10;;;;;;;2.66;73.75;99973.70;1793951;80;21026;-39
2022/02/12 06:55:35;;;;;;;1.95;1.22;;;;;;;2.68;73.58;99983.56;1794325;80;21132;-39
2022/02/12 06:58:01;;;;;;;2.12;1.30;;;;;;;2.71;73.41;99985.64;1794470;79;21510;-39
2022/02/12 07:00:30;;;;;;;1.37;1.17;;;;;;;2.72;73.31;99990.46;1792866;79;20947;-39
2022/02/12 07:02:57;;;;;;;3.37;1.57;;;;;;;2.66;73.51;99997.00;1780523;78;21619;-39
2022/02/12 07:05:24;;;;;;;2.22;1.42;;;;;;;2.66;73.54;99999.68;1753800;79;21056;-39
2022/02/12 07:07:51;;;;;;;3.58;1.87;;;;;;;2.64;73.53;100006.66;1754191;80;21146;-38
2022/02/12 07:10:21;;;;;;;3.50;1.60;;;;;;;2.61;73.34;100008.58;1766956;79;20934;-39
2022/02/12 07:12:48;;;;;;;2.20;1.60;;;;;;;2.62;73.26;100015.50;1760524;79;21045;-39
2022/02/12 07:15:15;;;;;;;4.40;1.80;;;;;;;2.67;73.39;100031.48;1789649;80;21032;-39
2022/02/12 07:17:42;;;;;;;3.08;1.90;;;;;;;2.75;73.53;100032.19;1782180;79;21051;-39
2022/02/12 07:20:12;;;;;;;2.37;1.80;;;;;;;2.78;72.98;100035.61;1784890;79;21971;-39
2022/02/12 07:22:40;;;;;;;3.03;1.73;;;;;;;2.75;72.87;100037.55;1772756;80;21012;-39
2022/02/12 07:25:10;;;;;;;2.90;1.65;;;;;;;2.75;72.98;100046.92;1762683;79;20964;-39
2022/02/12 07:27:39;;;;;;;3.70;1.95;;;;;;;2.83;72.95;100048.92;1752837;80;20964;-39
2022/02/12 07:30:09;;;;;;;1.87;1.57;;;;;;;2.91;72.71;100052.81;1767551;79;21043;-39
2022/02/12 07:32:36;;;;;;;3.77;1.52;;;;;;;2.94;72.66;100054.39;1768031;80;21204;-39
2022/02/12 07:35:06;;;;;;;2.83;1.52;;;;;;;2.97;72.47;100060.48;1758775;80;21000;-39
2022/02/12 07:37:32;;;;;;;;;;;;;;;2.99;72.31;100065.56;1783496;80;21024;-39
2022/02/12 07:40:01;;;;;;;4.10;1.77;;;;;;;3.01;72.11;100061.48;1784048;80;20155;-39
2022/02/12 07:42:27;;;;;;;3.00;1.72;;;;;;;2.99;72.27;100071.72;1780415;80;21048;-39
2022/02/12 07:44:54;;;;;;;3.50;1.72;;;;;;;3.04;72.23;100079.67;1775215;79;21121;-39
2022/02/12 07:47:20;;;;;;;3.05;1.87;;;;;;;3.05;71.95;100082.58;1757820;80;21066;-39
2022/02/12 07:49:47;;;;;;;5.85;2.47;;;;;;;3.04;71.83;100089.59;1776322;79;21517;-39
2022/02/12 07:52:13;;;;;;;8.13;2.25;;;;;;;2.97;71.70;100081.11;1774982;80;20997;-39
2022/02/12 07:54:40;;;;;;;4.53;2.12;;;;;;;2.94;71.82;100093.22;1783748;79;20961;-39
2022/02/12 07:57:07;;;;;;;3.87;1.87;;;;;;;2.96;71.64;100098.27;1793969;78;21121;-39
2022/02/12 07:59:35;;;;;;;4.33;1.80;;;;;;;2.97;71.33;100097.98;1749416;80;21012;-39
2022/02/12 08:02:02;;;;;;;4.33;2.08;;;;;;;2.95;71.68;100104.16;1773624;79;20945;-39
2022/02/12 08:04:29;;;;;;;6.20;2.20;;;;;;;2.97;71.64;100110.58;1780652;79;21003;-39
2022/02/12 08:09:41;;;;;;;4.60;2.20;;;;;;;2.96;71.85;100114.33;1777062;79;21875;-39
2022/02/12 08:12:18;;;;;;;5.92;2.20;;;;;;;3.03;71.91;100118.26;1773751;79;20965;-39
2022/02/12 08:14:50;;;;;;;8.15;2.05;;;;;;;3.15;71.88;100124.49;1767069;79;21015;-39
2022/02/12 08:17:19;;;;;;;6.05;2.47;;;;;;;3.37;71.93;100135.95;1767750;79;21527;-39
2022/02/12 08:19:48;;;;;;;3.92;2.30;;;;;;;3.55;71.20;100136.45;1764050;79;21123;-39
2022/02/12 08:22:17;;;;;;;5.60;2.60;;;;;;;3.66;71.10;100145.92;1777381;79;21198;-39
2022/02/12 08:24:45;;;;;;;4.90;2.33;;;;;;;3.74;70.70;100147.12;1778277;79;21650;-39
2022/02/12 08:27:11;;;;;;;4.53;1.90;;;;;;;3.79;70.57;100149.17;1781353;79;21586;-39
2022/02/12 08:29:42;;;;;;;5.47;2.42;;;;;;;3.81;69.97;100154.25;1777052;79;20978;-39
2022/02/12 08:32:10;;;;;;;4.60;2.05;;;;;;;3.78;69.62;100158.30;1751020;80;21494;-39
2022/02/12 08:34:36;;;;;;;4.37;2.00;;;;;;;3.68;69.67;100162.50;1786273;79;21245;-39
2022/02/12 08:37:03;;;;;;;4.45;1.80;;;;;;;3.61;69.84;100162.64;1791369;79;20983;-39
2022/02/12 08:39:30;;;;;;;4.37;2.30;;;;;;;3.53;69.79;100163.31;1796985;79;20985;-39
2022/02/12 08:41:56;;;;;;;3.02;1.57;;;;;;;3.42;70.02;100170.72;1796753;79;21029;-39
2022/02/12 08:44:23;;;;;;;5.58;1.85;;;;;;;3.38;70.43;100178.55;1793728;79;21562;-39
2022/02/12 08:46:49;;;;;;;3.87;1.50;;;;;;;3.37;70.23;100190.90;1762515;79;21145;-39
2022/02/12 08:49:16;;;;;;;4.35;1.60;;;;;;;3.32;70.51;100193.66;1765223;79;20934;-39
2022/02/12 08:51:42;;;;;;;5.12;1.90;;;;;;;3.26;70.73;100200.97;1775427;80;21089;-39
2022/02/12 08:54:11;;;;;;;5.15;2.30;;;;;;;3.22;70.95;100203.98;1775381;80;21597;-39
2022/02/12 08:56:42;;;;;;;3.87;2.02;;;;;;;3.23;70.24;100221.66;1775279;80;20937;-39
2022/02/12 08:59:08;;;;;;;5.90;2.15;;;;;;;3.29;70.54;100219.70;1774321;80;21104;-39
2022/02/12 09:01:37;;;;;;;6.58;2.02;;;;;;;3.36;70.44;100224.14;1781288;79;21483;-39
2022/02/12 09:04:10;;;;;;;6.37;2.30;;;;;;;3.41;70.77;100228.89;1774293;79;21676;-39
2022/02/12 09:06:37;;;;;;;4.47;2.12;;;;;;;3.48;70.57;100240.05;1757473;81;21044;-39
2022/02/12 09:09:08;;;;;;;5.65;2.50;;;;;;;3.49;70.59;100243.50;1735890;82;21111;-39
2022/02/12 09:11:33;;;;;;;4.22;2.20;;;;;;;3.48;70.48;100252.12;1749317;80;21115;-39
2022/02/12 09:14:00;;;;;;;6.60;2.10;;;;;;;3.49;70.41;100252.89;1730453;81;21565;-39
2022/02/12 09:16:26;;;;;;;7.35;2.22;;;;;;;3.59;70.41;100258.10;1755201;81;20988;-39
2022/02/12 09:18:53;;;;;;;7.67;2.60;;;;;;;3.71;70.28;100266.52;1748339;79;21038;-39
2022/02/12 09:21:21;;;;;;;4.70;2.30;;;;;;;3.77;69.98;100265.36;1738006;81;21024;-39
2022/02/12 09:23:48;;;;;;;5.53;2.25;;;;;;;3.78;69.54;100275.52;1749120;80;21917;-39
2022/02/12 09:26:15;;;;;;;6.00;2.22;;;;;;;3.79;69.46;100277.11;1730288;83;20928;-39
2022/02/12 09:28:42;;;;;;;4.72;2.10;;;;;;;3.76;69.58;100279.05;1730513;83;20972;-39
2022/02/12 09:31:09;;;;;;;4.97;2.25;;;;;;;3.73;69.48;100281.75;1737388;81;20999;-39
2022/02/12 09:33:37;;;;;;;4.90;2.45;;;;;;;3.72;69.40;100287.42;1735769;82;21031;-39
2022/02/12 09:36:05;;;;;;;4.65;2.75;;;;;;;3.70;69.22;100286.37;1712480;82;21144;-39
2022/02/12 09:38:32;;;;;;;7.28;2.80;;;;;;;3.63;69.12;100305.27;1732227;80;21126;-39
2022/02/12 09:40:59;;;;;;;5.70;2.37;;;;;;;3.53;69.22;100299.50;1745410;80;20969;-40
2022/02/12 09:43:28;;;;;;;7.20;2.98;;;;;;;3.42;69.32;100300.72;1787435;80;21447;-39
2022/02/12 09:46:12;;;;;;;6.83;2.58;;;;;;;3.36;69.98;100306.69;1789359;80;21076;-39
2022/02/12 09:48:40;;;;;;;6.12;2.62;;;;;;;3.35;70.27;100298.92;1755763;81;22311;-40
2022/02/12 09:51:07;;;;;;;5.95;3.00;;;;;;;3.38;70.42;100308.55;1777487;79;20952;-39
2022/02/12 09:53:34;;;;;;;6.70;3.12;;;;;;;3.43;70.37;100307.68;1768094;80;21038;-39
2022/02/12 09:56:01;;;;;;;5.35;2.80;;;;;;;3.41;70.79;100305.81;1759572;79;21034;-39
2022/02/12 09:58:28;;;;;;;6.80;3.17;;;;;;;3.43;70.60;100311.70;1725054;81;21020;-39
2022/02/12 10:00:55;;;;;;;5.78;3.45;;;;;;;3.53;70.60;100314.25;1730440;83;21918;-39
2022/02/12 10:03:21;;;;;;;7.83;3.42;;;;;;;3.65;70.19;100319.95;1736091;81;21086;-39
2022/02/12 10:05:53;;;;;;;6.90;3.45;;;;;;;3.76;69.97;100321.41;1781091;79;20979;-39
2022/02/12 10:08:21;;;;;;;6.85;3.60;;;;;;;3.83;69.93;100325.85;1776973;80;21083;-40
2022/02/12 10:10:50;;;;;;;8.23;3.20;;;;;;;4.01;69.54;100326.15;1768682;79;21060;-40
2022/02/12 10:13:28;;;;;;;8.00;2.90;;;;;;;4.09;67.64;100322.25;1761931;81;21111;-40
2022/02/12 10:15:58;;;;;;;6.33;3.00;;;;;;;4.15;67.45;100331.82;1743244;81;21085;-40
2022/02/12 10:18:26;;;;;;;;;;;;;;;4.15;66.89;100335.84;1759582;80;21571;-40
2022/02/12 10:20:54;;;;;;;5.33;2.70;;;;;;;3.86;66.63;100289.08;1768009;80;20194;-40
2022/02/12 10:23:26;;;;;;;6.70;3.02;;;;;;;3.97;66.09;100342.58;1769442;81;21032;-40
2022/02/12 10:26:07;;;;;;;5.28;2.70;;;;;;;3.83;65.92;100342.48;1772710;80;21094;-40
2022/02/12 10:28:42;;;;;;;7.95;2.85;;;;;;;3.69;66.16;100349.13;1755204;81;20980;-40
2022/02/12 10:31:10;;;;;;;7.22;3.15;;;;;;;3.59;66.66;100355.97;1758643;81;21015;-39
2022/02/12 10:33:48;;;;;;;5.17;2.65;;;;;;;3.51;66.94;100360.64;1754849;81;21016;-39
2022/02/12 10:36:17;;;;;;;4.83;2.55;;;;;;;3.52;66.87;100364.12;1783536;80;21518;-39
2022/02/12 10:38:47;;;;;;;7.15;2.92;;;;;;;3.53;67.03;100373.23;1788483;80;21114;-40
2022/02/12 10:41:19;;;;;;;5.97;2.90;;;;;;;3.54;67.56;100364.07;1789782;80;20999;-40
2022/02/12 10:43:54;;;;;;;6.15;2.60;;;;;;;3.57;67.60;100367.54;1790512;79;20985;-40
2022/02/12 10:46:22;;;;;;;7.37;2.92;;;;;;;3.63;67.74;100373.64;1785966;80;21524;-40
2022/02/12 10:48:50;;;;;;;8.50;3.40;;;;;;;3.70;67.80;100378.88;1777207;80;21489;-40
2022/02/12 10:51:17;;;;;;;5.62;2.83;;;;;;;3.75;67.34;100378.02;1759131;81;21652;-39
2022/02/12 10:54:07;;;;;;;5.87;2.83;;;;;;;3.75;67.42;100380.70;1758537;81;21003;-39
2022/02/12 10:56:49;;;;;;;6.60;3.22;;;;;;;3.75;67.30;100376.67;1772896;80;20991;-39
2022/02/12 10:59:19;;;;;;;8.43;3.42;;;;;;;3.76;67.78;100384.44;1782281;80;20974;-39
2022/02/12 11:01:46;;;;;;;8.38;3.10;;;;;;;3.79;67.94;100397.27;1789584;79;21039;-39
2022/02/12 11:04:15;;;;;;;11.95;4.15;;;;;;;3.87;68.04;100402.54;1789908;80;21133;-39
2022/02/12 11:06:46;;;;;;;6.72;3.37;;;;;;;3.85;67.63;100396.11;1791033;79;21580;-39
2022/02/12 11:09:14;;;;;;;10.23;3.30;;;;;;;3.83;67.68;100402.30;1764174;80;21485;-39
2022/02/12 11:11:41;;;;;;;9.10;4.22;;;;;;;3.84;67.70;100397.20;1782348;78;21020;-39
2022/02/12 11:14:08;;;;;;;12.63;6.70;;;;;;;3.89;67.08;100409.20;1774111;80;21034;-39
2022/02/12 11:16:36;;;;;;;9.68;4.62;;;;;;;3.89;66.84;100417.24;1783746;80;21546;-39
2022/02/12 11:20:14;;;;;;;17.87;9.33;;;;;;;3.90;67.34;100417.51;1807142;76;22544;-39
2022/02/12 11:22:41;;;;;;;12.15;5.08;;;;;;;3.82;67.26;100424.06;1799199;79;21000;-38
2022/02/12 11:25:39;;;;;;;11.00;4.58;;;;;;;3.79;67.00;100421.41;1797778;79;21066;-39
2022/02/12 11:28:09;;;;;;;8.15;3.15;;;;;;;3.76;67.23;100424.67;1785671;78;20965;-38
2022/02/12 11:30:39;;;;;;;10.75;4.17;;;;;;;3.77;66.46;100432.17;1788426;80;21005;-39
2022/02/12 11:33:10;;;;;;;8.05;3.62;;;;;;;3.79;64.52;100441.52;1765027;80;20976;-38
2022/02/12 11:35:37;;;;;;;7.55;3.35;;;;;;;3.86;64.24;100440.64;1758123;81;21521;-39
2022/02/12 11:38:06;;;;;;;7.03;3.12;;;;;;;3.98;64.01;100440.73;1786535;80;21419;-39
2022/02/12 11:40:32;;;;;;;7.42;3.40;;;;;;;4.09;64.03;100442.20;1747140;80;20917;-38
2022/02/12 11:43:02;;;;;;;7.50;3.45;;;;;;;4.16;64.25;100446.67;1768674;80;20898;-39
2022/02/12 11:45:37;;;;;;;5.53;2.83;;;;;;;4.14;64.04;100450.17;1784623;80;21620;-39
2022/02/12 11:48:28;;;;;;;7.90;2.90;;;;;;;4.13;64.25;100452.06;1784341;80;21502;-39
2022/02/12 11:51:08;;;;;;;6.72;3.05;;;;;;;4.10;64.16;100456.67;1790038;80;21116;-39